x

8413320 - Bar Harbor, Me (atgm1) Weather Station

6:54 - Mon 27th Feb 2017 All times are EST. -5 hours from GMT.

  • Wind
    9mph, 15mph gusts
  • Sea Temp 36°f
  • Aire Temp 42°f
  • Sea Pressure 1022.3mb
  • 8413320 - Bar Harbor, Me
  • 8413320 - Bar Harbor, Me

More Historic Weather Station data

Upgrade to MSW Pro to gain access to the past 30 days of data for over 8000 Wavebouys and Weather Stations around the globe.

Join Pro

Comparision Forecast

View Surf forecast
   
lun 02/27 6:54 9 15 mph 1022.3mb 36f 42f
6:48 7 15 mph 1022.2mb 36f 42f
6:42 9 13 mph 1022.1mb 36f 42f
6:36 9 14 mph 1022mb 36f 42f
6:30 8 15 mph 1021.9mb 36f 42f
6:24 11 15 mph 1021.8mb 36f 42f
6:18 8 15 mph 1021.7mb 36f 42f
6:12 8 14 mph 1021.7mb 36f 42f
6:06 8 14 mph 1021.7mb 36f 42f
6:00 10 15 mph 1021.6mb 36f 42f
5:54 13 15 mph 1021.5mb 36f 43f
5:48 9 15 mph 1021.4mb 36f 43f
5:42 10 14 mph 1021.3mb 36f 43f
5:36 10 15 mph 1021.1mb 36f 43f
5:30 9 15 mph 1021.1mb 36f 42f
5:24 11 15 mph 1021mb 36f 43f
5:18 10 14 mph 1021mb 36f 43f
5:12 9 14 mph 1020.9mb 36f 43f
5:06 9 14 mph 1020.9mb 36f 43f
5:00 9 13 mph 1020.8mb 36f 43f
4:54 8 16 mph 1020.7mb 36f 43f
4:48 10 15 mph 1020.6mb 36f 43f
4:42 9 16 mph 1020.6mb 36f 43f
4:36 10 17 mph 1020.5mb 36f 43f
4:30 11 21 mph 1020.5mb 36f 43f
4:24 13 18 mph 1020.4mb 36f 43f
4:18 13 17 mph 1020.4mb 36f 44f
4:12 14 21 mph 1020.4mb 36f 44f
4:06 13 24 mph 1020.3mb 36f 44f
4:00 16 25 mph 1020.1mb 36f 44f
3:54 13 22 mph 1020.2mb 36f 44f
3:48 15 23 mph 1020.2mb 36f 44f
3:42 15 24 mph 1020.2mb 36f 44f
3:36 16 25 mph 1020.2mb 36f 44f
3:30 15 21 mph 1020.2mb 36f 44f
3:24 16 23 mph 1020.1mb 36f 44f
3:18 17 24 mph 1020mb 36f 44f
3:12 14 25 mph 1020mb 36f 44f
3:06 14 24 mph 1020mb 36f 44f
3:00 17 28 mph 1019.9mb 36f 44f
2:54 17 26 mph 1019.9mb 36f 44f
2:48 18 25 mph 1019.9mb 36f 44f
2:42 17 26 mph 1019.9mb 36f 44f
2:36 16 24 mph 1019.8mb 36f 44f
2:30 13 24 mph 1019.9mb 36f 44f
2:24 14 22 mph 1019.9mb 36f 44f
2:18 16 24 mph 1019.8mb 36f 43f
2:12 21 26 mph 1019.8mb 36f 43f
2:06 13 20 mph 1019.8mb 36f 43f
2:00 14 24 mph 1019.9mb 36f 43f
1:54 18 28 mph 1019.8mb 36f 43f
1:48 11 22 mph 1019.9mb 36f 43f
1:42 14 24 mph 1019.9mb 36f 43f
1:36 20 26 mph 1019.8mb 36f 42f
1:30 17 26 mph 1019.8mb 36f 42f
1:24 16 25 mph 1019.7mb 36f 43f
1:18 13 21 mph 1019.7mb 36f 43f
1:12 16 23 mph 1019.7mb 36f 43f
1:06 16 24 mph 1019.6mb 36f 43f
1:00 13 22 mph 1019.7mb 36f 43f
12:54 15 21 mph 1019.7mb 36f 42f
12:48 16 25 mph 1019.8mb 36f 42f
12:42 13 20 mph 1020mb 36f 42f
12:36 16 28 mph 1020.1mb 36f 41f
12:30 16 24 mph 1020mb 36f 41f
12:24 11 23 mph 1020.1mb 36f 42f
12:18 8 16 mph 1020.1mb 36f 42f
12:12 10 23 mph 1020mb 36f 41f
12:06 13 21 mph 1020.1mb 36f 41f
12:00 10 20 mph 1020.2mb 36f 41f
11:54 15 24 mph 1020.4mb 36f 41f
11:48 14 24 mph 1020.5mb 36f 40f
11:42 16 23 mph 1020.7mb 36f 40f
11:36 17 26 mph 1020.8mb 36f 40f
11:30 15 26 mph 1020.9mb 36f 40f
11:24 13 24 mph 1021.1mb 36f 40f
11:18 17 28 mph 1021.2mb 36f 40f
11:12 18 29 mph 1021.1mb 36f 40f
11:06 14 25 mph 1021.2mb 36f 40f
11:00 22 29 mph 1021.1mb 36f 40f
10:54 17 24 mph 1021.1mb 36f 40f
10:48 16 30 mph 1021.1mb 36f 40f
10:42 20 29 mph 1021.1mb 36f 40f
10:36 13 23 mph 1021.2mb 36f 40f
10:30 18 28 mph 1021.2mb 36f 39f
10:24 18 28 mph 1021.1mb 36f 39f
10:18 11 25 mph 1021.2mb 36f 40f
10:12 14 26 mph 1021.1mb 36f 39f
10:06 13 25 mph 1021.1mb 36f 39f
10:00 13 20 mph 1021.2mb 36f 39f
9:54 11 23 mph 1021.4mb 36f 39f
9:48 15 22 mph 1021.4mb 36f 39f
9:42 14 20 mph 1021.4mb 36f 38f
9:36 13 24 mph 1021.4mb 36f 39f
9:30 16 24 mph 1021.2mb 36f 38f
9:24 14 26 mph 1021.1mb 36f 38f
9:18 17 25 mph 1021.3mb 36f 38f
9:12 15 29 mph 1021.4mb 36f 37f
9:06 14 25 mph 1021.3mb 36f 37f
9:00 16 24 mph 1021.2mb 36f 37f
8:54 14 25 mph 1021.2mb 36f 37f
8:48 9 21 mph 1020.9mb 36f 37f
8:42 13 22 mph 1020.9mb 36f 37f
8:36 14 20 mph 1020.9mb 36f 37f
8:30 14 21 mph 1020.8mb 36f 36f
8:24 14 21 mph 1020.9mb 36f 36f
8:18 9 16 mph 1020.9mb 36f 36f
8:12 11 17 mph 1021.1mb 36f 36f
8:06 11 21 mph 1021.1mb 36f 35f
8:00 11 21 mph 1021.1mb 36f 35f
7:54 13 22 mph 1021.1mb 36f 35f
7:48 10 17 mph 1021.3mb 36f 35f
7:42 9 17 mph 1021.4mb 36f 34f
7:36 13 21 mph 1021.4mb 36f 34f
7:30 13 21 mph 1021.1mb 36f 34f
7:24 11 16 mph 1021.2mb 36f 34f
7:18 14 21 mph 1021.3mb 36f 34f
7:12 11 17 mph 1021.4mb 36f 33f
7:06 11 17 mph 1021.4mb 36f 33f
7:00 10 18 mph 1021.4mb 36f 33f
6:54 13 20 mph 1021.3mb 36f 33f
6:48 11 18 mph 1021.2mb 36f 33f
6:42 11 16 mph 1021.1mb 36f 32f
6:36 11 17 mph 1021.1mb 36f 32f
6:30 13 20 mph 1021mb 36f 32f
6:24 10 15 mph 1021mb 36f 32f
6:18 8 15 mph 1021.1mb 36f 32f
6:12 9 14 mph 1020.9mb 36f 32f
6:06 6 10 mph 1020.8mb 36f 31f
6:00 6 11 mph 1020.9mb 36f 31f
5:54 8 15 mph 1021.1mb 36f 31f
5:48 10 15 mph 1021.2mb 36f 31f
5:42 8 16 mph 1021.1mb 36f 31f
5:36 6 9 mph 1021.1mb 36f 31f
5:30 7 13 mph 1021.1mb 36f 31f
5:24 7 14 mph 1021.1mb 36f 30f
5:18 8 11 mph 1020.9mb 36f 30f
5:12 7 15 mph 1020.9mb 36f 30f
5:06 7 14 mph 1020.9mb 36f 30f
5:00 8 17 mph 1020.9mb 36f 29f
4:54 7 10 mph 1021mb 36f 29f
4:48 3 7 mph 1021.1mb 36f 29f
4:42 2 6 mph 1021.1mb 36f 28f
4:36 5 8 mph 1021.1mb 36f 28f
4:30 5 8 mph 1021.1mb 36f 28f
4:24 7 10 mph 1021mb 36f 28f
4:18 7 10 mph 1020.9mb 36f 28f
4:12 7 14 mph 1020.9mb 36f 27f
4:06 8 11 mph 1020.7mb 36f 27f
4:00 7 9 mph 1020.6mb 36f 27f
3:54 6 14 mph 1020.6mb 36f 27f
3:48 9 13 mph 1020.6mb 36f 26f
3:42 9 14 mph 1020.6mb 36f 26f
3:36 10 13 mph 1020.4mb 36f 26f
3:30 8 14 mph 1020.4mb 36f 26f
3:24 9 15 mph 1020.2mb 36f 26f
3:18 9 15 mph 1020.2mb 36f 25f
3:12 9 14 mph 1020.1mb 36f 25f
3:06 10 14 mph 1020.1mb 36f 25f
3:00 9 16 mph 1020mb 36f 25f
2:54 10 15 mph 1019.9mb 36f 25f
2:48 8 13 mph 1019.9mb 36f 25f
2:42 9 13 mph 1019.8mb 36f 26f
2:36 10 16 mph 1019.8mb 36f 26f
2:30 11 17 mph 1019.8mb - 26f
2:24 11 15 mph 1019.8mb - 26f
2:18 7 11 mph 1019.8mb 36f 26f
2:12 10 16 mph 1019.7mb 36f 26f
2:06 8 13 mph 1019.6mb 36f 26f
2:00 10 14 mph 1019.6mb 36f 26f
1:54 8 14 mph 1019.6mb 36f 26f
1:48  -  mph 1019.5mb 36f 26f
1:42  -  mph 1019.4mb 36f 26f
1:36  -  mph 1019.3mb 36f 26f
1:30 10 14 mph 1019.2mb 36f 26f
1:24 9 14 mph 1019.1mb 36f 26f
1:18 9 14 mph 1019mb 36f 26f
1:12 10 15 mph 1019mb 36f 26f
1:06 10 16 mph 1019mb 36f 26f
1:00 10 16 mph 1018.9mb 36f 26f
12:54 13 16 mph 1018.8mb 36f 26f
12:48 9 16 mph 1018.9mb 36f 26f
12:42 13 16 mph 1018.7mb 36f 26f
12:36 10 14 mph 1018.5mb 36f 26f
12:30 14 17 mph 1018.5mb 36f 26f
12:24 13 17 mph 1018.5mb 36f 26f
12:18 10 14 mph 1018.5mb 36f 26f
12:12 9 13 mph 1018.5mb 36f 26f
12:06 11 15 mph 1018.4mb 36f 26f
12:00 11 16 mph 1018.3mb 36f 26f
dom 02/26 11:54 13 16 mph 1018mb 36f 26f
11:48 11 14 mph 1018mb 36f 26f
11:42 9 16 mph 1017.9mb 36f 26f
11:36 11 15 mph 1017.7mb 36f 26f
11:30 13 17 mph 1017.7mb 36f 26f
11:24 13 16 mph 1017.7mb 36f 26f
11:18 14 17 mph 1017.6mb 36f 26f
11:12 15 20 mph 1017.4mb 36f 26f
11:06 15 17 mph 1017.4mb 36f 26f
11:00 14 20 mph 1017.3mb 36f 27f
10:54 15 21 mph 1017.2mb 36f 26f
10:48 18 24 mph 1017.2mb 36f 27f
10:42 18 22 mph 1017.1mb 36f 27f
10:36 15 20 mph 1017.1mb 36f 27f
10:30 14 17 mph 1017.1mb 36f 27f
10:24 15 22 mph 1017.1mb 36f 27f
10:18 15 22 mph 1016.9mb 36f 27f
10:12 14 18 mph 1016.7mb 36f 27f
10:06 13 17 mph 1016.7mb 36f 27f
10:00 16 23 mph 1016.4mb 36f 28f
9:54 16 22 mph 1016.3mb 36f 28f
9:48 16 22 mph 1016mb 36f 28f
9:42 20 25 mph 1015.7mb 36f 28f
9:36 20 25 mph 1015.5mb 36f 28f
9:30 22 26 mph 1015.4mb 36f 28f
9:24 23 26 mph 1015.3mb 36f 28f
9:18 24 30 mph 1015.3mb 36f 28f
9:12 24 29 mph 1015.1mb 36f 28f
9:06 22 26 mph 1015.1mb 36f 28f
8:54 18 23 mph 1015mb 35f 29f
8:48 20 25 mph 1014.9mb 36f 29f
8:42 22 26 mph 1014.8mb 36f 29f
8:36 23 28 mph 1014.6mb 36f 29f
8:30 22 29 mph 1014.5mb 36f 29f
8:24 22 28 mph 1014.2mb 36f 29f
8:18 18 25 mph 1014.2mb 36f 29f
8:12 21 28 mph 1014mb 36f 29f
8:06 20 26 mph 1013.8mb 36f 29f
8:00 22 30 mph 1013.6mb 36f 29f
7:54 25 29 mph 1013.3mb 36f 29f
7:48 22 28 mph 1013.1mb 36f 30f
7:42 21 25 mph 1013mb 36f 30f
7:30 21 23 mph 1012.8mb 36f 30f
7:24 18 23 mph 1012.7mb 36f 30f
7:18 20 25 mph 1012.5mb 36f 30f
7:12 20 26 mph 1012.3mb 36f 31f
7:06 20 24 mph 1012.1mb 36f 31f
7:00 22 25 mph 1011.9mb 36f 31f
6:54 22 29 mph 1011.9mb 36f 31f
6:48 22 25 mph 1011.6mb 36f 31f
6:42 17 24 mph 1011.5mb 36f 31f
6:36 18 21 mph 1011.3mb 36f 32f
6:30 16 20 mph 1011.3mb 36f 32f
6:24 22 29 mph 1011.1mb 36f 32f
6:18 20 26 mph 1010.7mb 36f 32f
6:12 18 23 mph 1010.5mb 36f 33f
6:06 18 23 mph 1010.5mb 37f 33f
6:00 15 18 mph 1010.5mb 36f 33f
5:54 14 18 mph 1010.2mb 37f 33f
5:48 15 20 mph 1009.9mb 37f 33f
5:42 16 24 mph 1009.9mb 37f 33f
5:36 16 24 mph 1009.5mb 37f 34f
5:30 18 22 mph 1009.3mb 37f 34f
5:24 18 25 mph 1009.2mb 37f 34f
5:18 17 24 mph 1008.9mb 37f 34f
5:12 17 23 mph 1008.7mb 37f 34f
5:06 17 23 mph 1008.5mb 37f 35f
5:00 17 23 mph 1008.3mb 37f 35f
4:54 15 24 mph 1008.2mb 37f 35f
4:48 16 24 mph 1008mb 37f 35f
4:42 23 26 mph 1007.7mb 37f 35f
4:36 17 26 mph 1007.4mb 37f 36f
4:30 16 23 mph 1007.3mb 37f 36f
4:24 17 28 mph 1007.1mb 37f 36f
4:18 17 24 mph 1006.9mb 37f 36f
4:12 17 28 mph 1006.8mb 37f 36f
4:06 20 26 mph 1006.6mb 37f 36f
4:00 22 30 mph 1006.4mb 37f 36f
3:54 22 29 mph 1006.2mb 37f 36f
3:48 22 32 mph 1006.2mb 37f 37f
3:42 20 30 mph 1006mb 37f 37f
3:36 20 26 mph 1005.9mb 37f 37f
3:30 17 29 mph 1005.9mb 37f 37f
3:24 25 30 mph 1005.6mb 37f 37f
3:18 24 30 mph 1005.4mb 37f 37f
3:12 24 34 mph 1005.2mb 37f 37f
3:06 18 26 mph 1005.2mb 37f 37f
3:00 18 25 mph 1005.1mb 37f 38f
2:54 20 29 mph 1005.1mb 37f 37f
2:48 21 29 mph 1005mb 37f 38f
2:42 18 26 mph 1004.9mb 37f 38f
2:36 23 30 mph 1004.5mb 37f 38f
2:30 17 28 mph 1004.5mb 37f 38f
2:24 23 31 mph 1004.4mb 37f 38f
2:18 21 29 mph 1004.3mb 37f 38f
2:12 20 33 mph 1004.2mb 37f 38f
2:06 20 28 mph 1004.1mb 37f 38f
2:00 22 29 mph 1004mb 37f 38f
1:54 20 30 mph 1004mb 37f 38f
1:48 22 29 mph 1003.7mb 37f 38f
1:42 22 31 mph 1003.6mb 37f 38f
1:36 16 28 mph 1003.6mb 37f 39f
1:30 22 33 mph 1003.1mb 37f 38f
1:24 28 34 mph 1003.1mb 37f 38f
1:18 16 28 mph 1003.1mb 37f 39f
1:12 22 30 mph 1002.9mb 37f 38f
1:06 17 28 mph 1002.9mb 37f 39f
1:00 26 29 mph 1002.6mb 37f 38f
12:54 26 31 mph 1002.5mb 37f 38f
12:48 25 30 mph 1002.6mb 37f 38f
12:42 25 31 mph 1002.7mb 37f 38f
12:36 25 30 mph 1002.4mb 37f 37f
12:30 18 26 mph 1002.4mb 37f 38f
12:24 20 28 mph 1002.4mb 37f 39f
12:18 21 31 mph 1002.4mb 37f 38f
12:12 24 37 mph 1002.2mb 37f 38f
12:06 21 31 mph 1002.2mb 37f 39f
12:00 18 29 mph 1002.1mb 37f 39f
11:54 22 31 mph 1002.1mb 37f 38f
11:48 23 36 mph 1002mb 37f 38f
11:42 23 30 mph 1001.9mb 37f 38f
11:36 23 31 mph 1001.7mb 37f 38f
11:30 23 31 mph 1001.7mb 37f 38f
11:24 24 36 mph 1001.7mb 36f 38f
11:18 28 33 mph 1001.5mb 36f 38f
11:12 26 34 mph 1001.6mb 36f 38f
11:06 21 32 mph 1001.6mb 36f 38f
11:00 25 37 mph 1001.5mb 36f 38f
10:54 25 33 mph 1001.3mb 36f 39f
10:48 16 34 mph 1001.4mb 37f 39f
10:42 22 34 mph 1001.2mb 36f 39f
10:36 24 31 mph 1001.2mb 36f 39f
10:30 22 28 mph 1001.3mb 36f 39f
10:24 21 32 mph 1001.2mb 36f 39f
10:18 22 31 mph 1001.1mb - -
10:12 22 29 mph 1001mb 36f 40f
10:06 20 29 mph 1001.1mb 36f 39f
10:00 25 30 mph 1000.9mb 36f 38f
9:54 26 34 mph 1000.8mb 36f 38f
9:48 23 29 mph 1000.8mb 36f 39f
9:42 23 30 mph 1000.7mb 36f 39f
9:36 24 28 mph 1000.5mb 36f 39f
9:30 24 30 mph 1000.4mb 36f 39f
9:24 24 28 mph 1000.4mb 36f 38f
9:18 20 29 mph 1000.4mb 36f 39f
9:12 22 29 mph 1000.2mb 36f 39f
9:06 16 23 mph 1000.1mb 36f 38f
9:00 21 30 mph 1000.1mb 36f 38f
8:54 20 25 mph 1000mb 36f 38f
8:48 15 22 mph 999.9mb 36f 39f
8:42 16 22 mph 999.8mb 36f 39f
8:36 15 26 mph 999.7mb 36f 39f
8:30 16 25 mph 999.6mb 36f 38f
8:24 13 18 mph 999.6mb 36f 38f
8:18 18 24 mph 999.5mb 36f 38f
8:12 17 20 mph 999.4mb 36f 38f
8:06 17 25 mph 999.2mb 36f 39f
8:00 21 26 mph 999mb 36f 39f
7:54 23 29 mph 998.8mb 36f 39f
7:48 14 18 mph 998.8mb 36f 38f
7:42 13 17 mph 998.7mb 36f 38f
7:36 11 16 mph 998.7mb 36f 38f
7:30 15 22 mph 998.5mb 36f 39f
7:24 14 18 mph 998.4mb 36f 39f
7:18 13 16 mph 998.4mb 36f 39f
7:12 13 15 mph 998.3mb 36f 39f
7:06 13 20 mph 998mb 36f 39f
7:00 15 18 mph 997.8mb 36f 39f
6:54 17 22 mph 997.6mb 36f 39f
6:48 16 20 mph 997.5mb 36f 39f
6:36 14 22 mph 997.2mb 36f 39f
6:30 16 23 mph 997.1mb 36f 40f
6:24 16 26 mph 997mb 36f 40f
6:18 18 24 mph 996.5mb 36f 40f
6:12 16 23 mph 996.3mb 37f 40f
6:06 16 22 mph 996mb 36f 40f
6:00 18 21 mph 995.4mb 37f 40f
5:54 18 21 mph 996mb 37f 40f
5:48 15 20 mph 996mb 37f 40f
5:42 16 20 mph 995.8mb 36f 40f
5:30 18 21 mph 995.9mb 37f 41f
5:24 20 24 mph 995.4mb 36f 41f
5:18 14 18 mph 995.4mb 37f 41f
5:12 14 21 mph 995.3mb 37f 41f
5:06 16 21 mph 994.9mb 37f 42f
5:00 13 18 mph 995.1mb 37f 42f
4:54 14 21 mph 994.6mb 37f 42f
4:48 15 18 mph 994.3mb 37f 42f
4:42 14 18 mph 994.4mb 36f 42f
4:36 17 20 mph 994.2mb 37f 42f
4:30 16 23 mph 994.3mb 37f 42f
4:18 17 22 mph 993.7mb 36f 43f
4:12 18 22 mph 993.6mb 36f 44f
4:06 20 24 mph 993.2mb 36f 44f
4:00 16 21 mph 993mb 36f 44f
3:54 17 22 mph 992.8mb 36f 44f
3:48 17 22 mph 992.6mb 36f 46f
3:42 16 20 mph 992.4mb 36f 46f
3:36 14 17 mph 992.1mb 36f 47f
3:30 15 16 mph 991.9mb 36f 46f
3:24 13 16 mph 991.5mb 36f 47f
3:18 16 18 mph 991.4mb 36f 47f
3:12 11 15 mph 991.1mb 36f 47f
3:06 11 17 mph 991.3mb 36f 46f
3:00 15 20 mph 991.2mb 36f 48f
2:54 10 14 mph 991.7mb 36f 48f
2:48 10 14 mph 992.2mb 36f 49f
2:42 9 16 mph 992.3mb 36f 49f
2:36 10 18 mph 992.5mb 36f 49f
2:30 13 20 mph 992.5mb 36f 50f
2:24 9 15 mph 992.6mb 36f 50f
2:18 10 15 mph 992.8mb 36f 50f
2:12 10 17 mph 992.6mb 36f 50f
2:06 10 17 mph 992.4mb 36f 50f
2:00 10 22 mph 992.1mb 36f 50f
1:54 9 16 mph 992.4mb 36f 51f
1:48 11 21 mph 992.4mb 36f 51f
1:42 14 22 mph 992.3mb 36f 51f
1:36 14 21 mph 992.7mb 36f 51f
1:30 14 26 mph 992.7mb 36f 51f
1:24 15 29 mph 993mb 36f 51f
1:18 16 24 mph 993mb 36f 51f
1:12 10 18 mph 993.3mb 36f 50f
1:06 10 17 mph 992.6mb 36f 50f
1:00 13 20 mph 992.8mb 36f 50f
12:54 14 22 mph 992.8mb 36f 49f
12:48 13 22 mph 992.8mb 36f 49f
12:42 15 23 mph 993.1mb 36f 49f
12:36 13 22 mph 993.1mb 36f 50f
12:30 10 20 mph 993.3mb 36f 49f
12:24 10 22 mph 993.6mb 36f 48f
12:18 11 20 mph 993.6mb 36f 48f
12:12 13 24 mph 993.8mb 36f 48f
12:06 11 17 mph 994mb 36f 48f
12:00 10 18 mph 994.4mb 37f 48f
sáb 02/25 11:54 10 16 mph 994.4mb 37f 47f
11:48 10 20 mph 994.4mb 37f 47f
11:42 13 20 mph 994.6mb 37f 48f
11:36 9 20 mph 994.8mb 37f 48f
11:30 8 16 mph 995.1mb 37f 49f
11:24 9 14 mph 995.1mb 37f 49f
11:18 7 13 mph 995.3mb 37f 49f
11:12 14 23 mph 995.5mb 37f 49f
11:06 8 13 mph 995.7mb 37f 48f
11:00 9 14 mph 995.9mb 37f 48f
10:54 8 17 mph 996.1mb 36f 48f
10:48 8 16 mph 996.3mb 36f 49f
10:42 8 18 mph 996.4mb 36f 48f
10:36 9 16 mph 996.6mb 36f 49f
10:30 11 17 mph 996.8mb 36f 49f
10:24 10 22 mph 997mb 36f 49f
10:18 11 23 mph 997.2mb 36f 49f
10:12 11 17 mph 997.4mb 36f 48f
10:06 8 14 mph 997.6mb 36f 49f
10:00 7 15 mph 997.8mb 36f 48f
9:54 8 16 mph 998mb 36f 48f
9:48 9 15 mph 998.2mb 36f 47f
9:42 6 10 mph 998.4mb 36f 48f
9:36 6 11 mph 998.5mb 36f 47f
9:30 9 11 mph 998.7mb 36f 47f
9:24 8 11 mph 998.9mb 36f 47f
9:18 7 10 mph 999.1mb 36f 47f
9:12 7 9 mph 999.2mb 36f 47f
9:06 5 10 mph 999.5mb 36f 47f
9:00 8 10 mph 999.7mb 36f 47f
8:54 7 10 mph 999.8mb 36f 47f
8:48 2 8 mph 1000mb 36f 48f
8:42 6 11 mph 1000.1mb 36f 47f
8:36 3 7 mph 1000.2mb 36f 48f
8:30 3 11 mph 1000.2mb 36f 48f
8:24 5 8 mph 1000.2mb 36f 48f
8:18 5 8 mph 1000.2mb 36f 47f
8:12 5 10 mph 1000.3mb 36f 48f
8:06 6 10 mph 1000.5mb 36f 48f
8:00 7 14 mph 1000.6mb 36f 48f
7:54 6 10 mph 1000.7mb 36f 48f
7:48 6 10 mph 1000.7mb 36f 47f
7:42 6 8 mph 1000.8mb 37f 48f
7:36 7 10 mph 1000.8mb 37f 47f
7:30 6 9 mph 1000.9mb 37f 47f
7:24 7 11 mph 1001.1mb 37f 47f
7:18 5 13 mph 1001.3mb 37f 47f
7:12 8 11 mph 1001.4mb 37f 47f
7:06 7 15 mph 1001.5mb 37f 47f
7:00 6 14 mph 1001.7mb 37f 48f
6:54 9 14 mph 1002mb 37f 48f
6:48 5 16 mph 1002.2mb 37f 48f
6:42 10 21 mph 1002.4mb 37f 49f
6:36 10 17 mph 1002.6mb 37f 49f
6:30 5 13 mph 1002.7mb 38f 47f
6:24 6 9 mph 1002.7mb 37f 48f
6:18 6 11 mph 1002.9mb 37f 47f
6:12 7 11 mph 1003.1mb 37f 45f
6:06 8 13 mph 1003.3mb 37f 47f
6:00 10 14 mph 1003.5mb 37f 46f
5:54 8 13 mph 1003.7mb 37f 44f
5:48 8 13 mph 1003.9mb 37f 45f
5:42 7 10 mph 1004.1mb 37f 45f
5:36 8 10 mph 1004.4mb 37f 46f
5:30 8 10 mph 1004.5mb 37f 46f
5:24 6 10 mph 1004.6mb 37f 47f
5:18 7 11 mph 1004.7mb 37f 47f
5:12 10 17 mph 1004.7mb 37f 48f
5:06 7 15 mph 1004.9mb 37f 49f
5:00 7 11 mph 1005.1mb 37f 49f
4:54 8 16 mph 1005.1mb 37f 51f
4:48 6 10 mph 1005.3mb 37f 51f
4:42 5 9 mph 1005.4mb 37f 50f
4:36 3 9 mph 1005.4mb 37f 52f
4:30 6 11 mph 1005.5mb 37f 50f
4:24 9 15 mph 1005.7mb 37f 50f
4:18 6 15 mph 1005.7mb 37f 52f
4:12 6 14 mph 1005.8mb 37f 53f
4:06 8 18 mph 1006mb 37f 53f
4:00 7 13 mph 1006.1mb 37f 54f
3:54 8 14 mph 1006.4mb 37f 54f
3:48 9 15 mph 1006.6mb 37f 53f
3:42 9 16 mph 1006.7mb 37f 48f
3:36 14 16 mph 1006.8mb 37f 45f
3:30 11 16 mph 1006.7mb 37f 44f
3:24 13 16 mph 1006.7mb 37f 44f
3:18 11 14 mph 1006.8mb 37f 44f
3:12 10 13 mph 1006.7mb 37f 44f
3:06 10 15 mph 1006.9mb 37f 44f
3:00 13 15 mph 1007mb 37f 44f
2:54 11 15 mph 1007mb 37f 43f
2:48 10 14 mph 1007.1mb 37f 43f
2:42 9 14 mph 1007.1mb 37f 43f
2:36 10 15 mph 1007.2mb 37f 43f
2:30 14 16 mph 1007.2mb 37f 43f
2:24 14 17 mph 1007.3mb 37f 44f
2:18 14 18 mph 1007.3mb 37f -
2:12 14 20 mph 1007.4mb 37f 44f
2:06 14 21 mph 1007.4mb 37f 45f
2:00 16 18 mph 1007.4mb 37f 44f
1:54 13 17 mph 1007.4mb 37f 44f
1:48 14 20 mph 1007.4mb 37f 44f
1:42 15 17 mph 1007.5mb 36f 44f
1:36 15 18 mph 1007.6mb 36f 45f
1:30 14 17 mph 1007.6mb 36f 46f
1:24 14 18 mph 1007.7mb 36f 46f
1:18 13 16 mph 1007.8mb 36f 48f
1:12 9 17 mph 1007.8mb 36f 52f
1:06 9 16 mph 1008mb 36f 52f
1:00 9 14 mph 1008mb 36f 53f
12:54 9 17 mph 1008.1mb 36f 58f
12:48 9 18 mph 1008.2mb 36f 57f
12:42 8 16 mph 1008.3mb 36f 58f
12:36 6 14 mph 1008.3mb 36f 59f
12:30 9 15 mph 1008.5mb 36f 59f
12:24 9 21 mph 1008.6mb 36f 59f
12:18 5 13 mph 1008.7mb 36f 60f
12:12 7 9 mph 1008.8mb 36f 59f
12:06 5 16 mph 1009mb 36f 59f
12:00 6 14 mph 1009mb 36f 60f
11:54 8 11 mph 1009.1mb 36f 60f
11:48 7 10 mph 1009.3mb 36f 59f
11:42 6 10 mph 1009.4mb 36f 58f
11:36 6 14 mph 1009.5mb 36f 58f
11:30 6 13 mph 1009.5mb 36f 58f
11:24 8 15 mph 1009.7mb 36f 58f
11:12 10 17 mph 1009.7mb 36f 59f
11:06 8 16 mph 1009.7mb 36f 60f
11:00 9 17 mph 1009.8mb 36f 60f
10:54 6 14 mph 1009.9mb 36f 59f
10:48 8 16 mph 1010.1mb 36f 58f
10:42 9 18 mph 1010.1mb 36f 58f
10:36 10 17 mph 1010.1mb 36f 58f
10:30 7 16 mph 1010.2mb 36f 57f
10:24 5 11 mph 1010.2mb 36f 58f
10:18 3 8 mph 1010.4mb 36f 58f
10:12 6 9 mph 1010.5mb 36f 57f
10:06 5 9 mph 1010.6mb 36f 56f
10:00 3 6 mph 1010.6mb 36f 51f
9:54 5 6 mph 1010.7mb 36f 49f
9:48 3 5 mph 1010.6mb 36f 48f
9:42 2 7 mph 1010.7mb 36f 50f
9:36 6 7 mph 1010.7mb 36f 48f
9:30 3 5 mph 1010.7mb 36f 47f
9:24 3 7 mph 1010.9mb 36f 44f
9:18 2 5 mph 1011mb 36f 43f
9:12 5 11 mph 1011mb 36f 44f
9:06 8 11 mph 1010.9mb 36f 43f
9:00 7 11 mph 1011mb 36f 42f
8:54 6 10 mph 1011.1mb 36f 43f
8:48 8 9 mph 1011.2mb 36f 42f
8:42 6 9 mph 1011.3mb 36f 42f
8:36 5 11 mph 1011.2mb 36f 42f
8:30 9 14 mph 1011.3mb 36f 41f
8:24 11 14 mph 1011.3mb 36f 41f
8:18 13 15 mph 1011.4mb 36f 42f
8:12 9 15 mph 1011.5mb 36f 42f
8:06 9 14 mph 1011.4mb 36f 42f
8:00 14 16 mph 1011.5mb 36f 41f
7:54 10 14 mph 1011.3mb 36f 42f
7:48 10 14 mph 1011.3mb 36f 42f
7:42 6 8 mph 1011.4mb 36f 41f
7:36 2 3 mph 1011.5mb 36f 41f
7:30 2
mph
1011.3mb 36f 40f
7:24  -  3 mph 1011.2mb 36f 40f
7:18 5 6 mph 1011.3mb 36f 40f
7:12 1 3 mph 1011.2mb 36f 40f
7:06 1 3 mph 1011.2mb 36f 40f
7:00 1 3 mph 1011.2mb 36f 40f
6:54 2 5 mph 1011.3mb 36f 40f
6:48 5 6 mph 1011.3mb 36f 40f
6:42 2 3 mph 1011.3mb 36f 40f
6:36 1 6 mph 1011.4mb 36f 40f
6:30 5 6 mph 1011.4mb 36f 39f
6:24 2 3 mph 1011.4mb 36f 40f
6:18 2 3 mph 1011.4mb 36f 41f
6:12 1 3 mph 1011.4mb 36f 41f
6:06 2 6 mph 1011.3mb 36f 40f
6:00 5 6 mph 1011.3mb 36f 41f
5:54  -  3 mph 1011.3mb 36f 41f
5:48  -  3 mph 1011.3mb 36f 41f
5:42  -  2 mph 1011.3mb 36f 41f
5:36  -  5 mph 1011.3mb 36f 41f
5:30 5 7 mph 1011.2mb 36f 41f
5:24 5 6 mph 1011.3mb 36f 42f
5:18 3
mph
1011.4mb 36f 41f
5:12 1 2 mph 1011.4mb 36f 41f
5:06  -  3 mph 1011.2mb 36f 41f
5:00 2 3 mph 1011.1mb 36f 40f
4:54 1 2 mph 1011.2mb 36f 41f
4:48 1 5 mph 1011.2mb 36f 41f
4:42 5 7 mph 1011.3mb 36f 41f
4:36 6 7 mph 1011.3mb 36f 40f
4:30 2 3 mph 1011.3mb 36f 41f
4:24 2 3 mph 1011.5mb 36f 41f
4:18  -  1 mph 1011.4mb 36f 42f
4:12 1 2 mph 1011.3mb 36f 42f
4:06 2 3 mph 1011.2mb 36f 41f
4:00 2 5 mph 1011.1mb 36f 42f
3:54 2 7 mph 1011.1mb 36f 42f
3:48 6 8 mph 1011mb 36f 42f
3:42 6 7 mph 1010.9mb 36f 42f
3:36 6 7 mph 1011mb 36f 41f
3:30 6
mph
1011.1mb 36f 41f
3:24 5 6 mph 1010.9mb 36f 43f
3:18 3 5 mph 1010.8mb 36f 42f
3:12 5 6 mph 1010.7mb 36f 42f
3:06 2 7 mph 1010.8mb 36f 43f
3:00 3 6 mph 1010.6mb 36f 42f
2:54 5 7 mph 1010.5mb 36f 42f
2:48 7 8 mph 1010.5mb 36f 43f
2:42 2 5 mph 1010.5mb 36f 44f
2:36 2 5 mph 1010.6mb 36f 44f
2:30 3 6 mph 1010.8mb 36f 44f
2:24 2 6 mph 1010.7mb 36f 45f
2:18 5 7 mph 1010.7mb 36f 47f
2:12 3 6 mph 1010.7mb 36f 48f
2:06 2 6 mph 1010.8mb 36f 49f
2:00 1 5 mph 1010.9mb 36f 48f
1:54 2 5 mph 1010.8mb 36f 49f
1:48 3 7 mph 1010.9mb 36f -
1:42 3 7 mph 1010.9mb 36f -
1:36 2 6 mph 1010.9mb 36f -
1:30 3 7 mph 1010.9mb 36f 47f
1:24 3 8 mph 1010.9mb 36f 48f
1:18 2 9 mph 1010.9mb 36f 47f
1:12 1 6 mph 1010.9mb 36f 48f
1:06 7 9 mph 1010.8mb 36f 48f
1:00 3 7 mph 1010.8mb 36f 47f
12:54 2 7 mph 1010.9mb 36f 46f
12:48 5 10 mph 1010.8mb - -
12:42 5 7 mph 1010.9mb - -
12:36 1 9 mph 1010.8mb - -
12:30 5 7 mph 1010.6mb 36f 48f
12:24 2 8 mph 1010.6mb 36f 53f
12:18 8 14 mph 1010.5mb 36f 55f
12:12 5 10 mph 1010.4mb 36f 55f
12:06 6 15 mph 1010.4mb 36f 55f
12:00 6 11 mph 1010.3mb 36f 55f
vie 02/24 11:54 6 13 mph 1010.3mb 36f 54f
11:48 8 17 mph 1010.1mb 36f 54f
11:42 8 16 mph 1009.9mb 36f 54f
11:36 10 23 mph 1009.8mb 36f 54f
11:30 10 17 mph 1009.9mb 36f 54f
11:24 14 21 mph 1009.8mb 36f 54f
11:18 14 22 mph 1009.8mb 36f 55f
11:12 14 21 mph 1009.6mb 36f 55f
11:06 11 23 mph 1009.5mb 36f 55f
11:00 14 20 mph 1009.5mb 36f 54f
10:54 13 21 mph 1009.6mb 36f 54f
10:48 13 24 mph 1009.6mb 36f 54f
10:42 13 24 mph 1009.6mb 36f 54f
10:36 14 23 mph 1009.6mb 36f 53f
10:30 16 22 mph 1009.6mb 36f 53f
10:24 14 26 mph 1009.6mb 36f 54f
10:18 15 29 mph 1009.5mb 36f 54f
10:12 17 26 mph 1009.5mb 36f 54f
10:06 14 32 mph 1009.6mb 36f 54f
10:00 15 22 mph 1009.6mb 36f 54f
9:54 13 25 mph 1009.7mb 36f 54f
9:48 15 23 mph 1009.7mb 36f 55f
9:42 8 14 mph 1009.8mb 36f 54f
9:36 11 20 mph 1009.9mb 36f 54f
9:30 9 14 mph 1010mb 36f 54f
9:24 7 15 mph 1010.1mb 36f 54f
9:18 9 13 mph 1010.1mb 36f 54f
9:12 8 15 mph 1010.2mb 36f 54f
9:06 8 21 mph 1010.3mb 36f 54f
9:00 11 21 mph 1010.2mb 36f 55f
8:54 11 18 mph 1010.2mb 36f 55f
8:48 8 18 mph 1010.3mb 36f 55f
8:42 9 20 mph 1010.3mb 36f 55f
8:36 13 18 mph 1010.2mb 36f 55f
8:30 7 18 mph 1010.4mb 36f 54f
8:24 10 22 mph 1010.4mb 36f 54f
8:18 14 20 mph 1010.4mb 36f 55f
8:12 14 24 mph 1010.4mb 36f 55f
8:06 11 18 mph 1010.3mb 36f 55f
8:00 13 17 mph 1010.2mb 36f 55f
7:54 10 20 mph 1010.5mb 36f 54f
7:48 11 18 mph 1010.4mb 36f 54f
7:42 15 21 mph 1010.4mb 36f 55f
7:36 10 18 mph 1010.4mb 36f 54f
7:30 11 18 mph 1010.4mb 36f 54f
7:24 16 24 mph 1010.3mb 36f 55f
7:18 14 22 mph 1010.4mb 36f 54f
7:12 10 20 mph 1010.6mb 36f 54f
7:06 9 14 mph 1010.6mb 36f 54f
7:00 6 9 mph 1010.6mb 36f 54f
6:54 6 14 mph 1010.5mb 36f 55f
6:48 9 16 mph 1010.7mb 36f 55f
6:42 5 13 mph 1010.8mb 36f 54f
6:36 7 14 mph 1010.8mb 36f 53f
6:30 8 11 mph 1010.9mb 36f 47f
6:24 9 10 mph 1010.8mb 36f 49f
6:18 8 11 mph 1010.6mb 36f 47f
6:12 8 13 mph 1010.7mb 36f 50f
6:06 11 14 mph 1010.6mb 36f 43f
6:00 5 7 mph 1010.7mb 36f 43f
5:54 1 6 mph 1010.7mb 36f 44f
5:48 6
mph
1010.5mb - 44f
5:42 2 3 mph 1010.5mb - 43f
5:36  -  2 mph 1010.5mb - 44f
5:30 2 5 mph 1010.6mb 36f 44f
5:24  -  2 mph 1010.5mb 36f 43f
5:18 1 2 mph 1010.6mb 36f 43f
5:12  -  2 mph 1010.6mb 36f 43f
5:06 1 3 mph 1010.5mb 36f 43f
5:00 2 3 mph 1010.5mb 36f 43f
4:54 3 5 mph 1010.7mb 36f 43f
4:48 3 6 mph 1010.5mb 36f 44f
4:42 5 7 mph 1010.5mb 36f 44f
4:36 1 2 mph 1010.4mb 36f 47f
4:30 1 2 mph 1010.5mb 36f 46f
4:24 1 2 mph 1010.4mb 36f 47f
4:18 1 2 mph 1010.4mb 36f 46f
4:12 3 5 mph 1010.3mb 36f 46f
4:06  -  6 mph 1010.4mb 36f 47f
4:00 3 5 mph 1010.7mb 36f 46f
3:54 2 5 mph 1010.7mb 36f 46f
3:48 2 3 mph 1010.8mb 36f -
3:42 1 3 mph 1010.8mb 36f 45f
3:36 2 7 mph 1010.9mb 36f 45f
3:30 6 8 mph 1011mb 36f 44f
3:24 3 9 mph 1011mb 36f 44f
3:18 5 9 mph 1011.1mb 36f 44f
3:12 5 8 mph 1011.1mb 36f 44f
3:06 7 10 mph 1011mb 36f 43f
3:00 8 10 mph 1011mb 36f 42f
2:54  -  8 mph 1011.1mb 36f 43f
2:48 10 14 mph 1011.1mb 36f 41f
2:42 10 14 mph 1011mb 36f 42f
2:36 8 13 mph 1010.9mb 36f 46f
2:30 9 13 mph 1010.9mb 36f 45f
2:24 8 14 mph 1011.1mb 36f 46f
2:18 9 13 mph 1010.9mb 36f 46f
2:12 9 11 mph 1011mb 36f 47f
2:06 5 6 mph 1011.2mb 36f 47f
2:00 5 8 mph 1011.3mb 36f 47f
1:54 6 9 mph 1011.3mb 36f 46f
1:48 7 11 mph 1011.3mb 36f 51f
1:42 3 6 mph 1011.3mb 36f 51f
1:36 3 6 mph 1011.3mb 36f 49f
1:30 6 8 mph 1011.2mb 36f 48f
1:24 5 8 mph 1011.2mb 36f 48f
1:18 5 9 mph 1011mb 36f 48f
1:12 8 9 mph 1011.2mb 36f 45f
1:06 6 9 mph 1011.2mb 36f 49f
1:00 8 10 mph 1011.3mb 36f 51f
12:54 2 6 mph 1011.4mb 36f 52f
12:48 6 9 mph 1011.6mb 36f 51f
12:42 8 10 mph 1011.7mb 36f 49f
12:36 8 11 mph 1011.6mb 36f 50f
12:30 8 10 mph 1011.9mb 36f 50f
12:24 3 6 mph 1012mb 36f 44f
12:18 5 8 mph 1012mb 36f 43f
12:12 7 8 mph 1012mb 36f 43f
12:06 5 8 mph 1012.2mb 36f 43f
12:00 6 7 mph 1012.3mb 36f 43f
11:54 7 8 mph 1012.4mb 36f 42f
11:48 7 8 mph 1012.6mb 36f 43f
11:42 3
mph
1012.8mb 36f 45f
11:36 3 5 mph 1012.9mb 36f 43f
11:30 2 3 mph 1012.9mb 36f 46f
11:24 2 3 mph 1013mb 36f 48f
11:18 2 3 mph 1013.1mb 36f 47f
11:12 2 3 mph 1013.3mb 36f 46f
11:06 1 2 mph 1013.4mb 36f 45f
11:00 1 2 mph 1013.3mb 36f 48f
10:54  -  2 mph 1013.4mb 36f 47f
10:48  -  1 mph 1013.6mb 36f 46f
10:42 1 3 mph 1013.5mb 36f 46f
10:36 2 3 mph 1013.5mb 36f 45f
10:30 2 3 mph 1013.5mb 36f 45f
10:24 2
mph
1013.6mb 36f 44f
10:18  -  1 mph 1013.6mb 36f 44f
10:12 1 2 mph 1013.5mb 36f 44f
10:06  -  2 mph 1013.4mb 36f 46f
10:00 2 3 mph 1013.4mb 36f 44f
9:54 2 3 mph 1013.5mb 36f 44f
9:48  -  1 mph 1013.3mb 36f 44f
9:42  -  1 mph 1013.3mb 36f 44f
9:36  -  1 mph 1013.2mb 36f 43f
9:30 2 3 mph 1013.1mb 36f 42f
9:24 3 5 mph 1013.2mb 36f 43f
9:18 5
mph
1013.2mb 36f 41f
9:12 5 6 mph 1013.2mb 36f 42f
9:06 5
mph
1012.8mb 36f 41f
9:00 3 5 mph 1012.9mb 36f 41f
8:54 3 6 mph 1012.9mb 36f 40f
8:48 5 6 mph 1013.1mb 36f 40f
8:42 5 6 mph 1013.2mb 36f 40f
8:36 3 5 mph 1012.9mb 36f 40f
8:30 5
mph
1012.9mb 36f 40f
8:24 2 3 mph 1012.6mb 36f 40f
8:18  -  3 mph 1012.5mb 36f 40f
8:12 5 6 mph 1012.8mb 36f 38f
8:06 2 3 mph 1012.9mb 36f 39f
8:00 1 5 mph 1012.9mb 36f 39f
7:54 3 5 mph 1012.9mb 36f 39f
7:48 2 3 mph 1012.7mb 36f 40f
7:42  -  5 mph 1012.8mb 36f 40f
7:36 5 6 mph 1012.7mb 36f 40f
7:30 3 5 mph 1012.7mb 36f 40f
7:24  -  2 mph 1012.6mb 36f 42f
7:18 2 3 mph 1012.6mb 36f 41f
7:12 2
mph
1012.5mb 36f 42f
7:06 1 3 mph 1012.5mb 36f 42f
7:00 5 7 mph 1012.5mb 36f 41f
6:54 1
mph
1012.3mb 36f 42f
6:48  -  mph 1012.1mb 36f 42f
6:42  -  mph 1012mb 36f 42f
6:36  -  1 mph 1011.9mb 36f 41f
6:30  -  1 mph 1011.8mb 36f 41f
6:24  -  1 mph 1011.6mb 36f 41f
6:18  -  1 mph 1011.5mb 36f 41f
6:12  -  mph 1011.4mb 36f 41f
6:06  -  1 mph 1011.3mb 36f 41f
6:00 2 3 mph 1011.1mb 36f 41f
5:54 3 5 mph 1011.2mb 36f 41f
5:48 3
mph
1011.1mb 36f 41f
5:42 2 3 mph 1011.1mb 36f 41f
5:36 1 2 mph 1011.1mb 36f 42f
5:30 1
mph
1011.1mb 36f 42f
5:24  -  2 mph 1011mb 36f 43f
5:18  -  6 mph 1010.9mb 36f 43f
5:12 1 7 mph 1010.8mb 36f 42f
5:06 1 2 mph 1010.7mb 36f 43f
5:00 1 2 mph 1010.6mb 36f 43f
4:54 3 5 mph 1010.5mb 36f 44f
4:48 1 2 mph 1010.4mb 36f 45f
4:42  -  7 mph 1010.2mb 36f 44f
4:36 6 7 mph 1010.1mb 36f 45f
4:30 3 6 mph 1010.1mb 36f 44f
4:24 2 3 mph 1010mb 36f 44f
4:18 1 2 mph 1009.9mb 36f 44f
4:12 2 5 mph 1009.9mb 36f 44f
4:06 3 5 mph 1009.8mb 36f 44f
4:00 3 6 mph 1009.7mb 36f 45f
3:54 3 7 mph 1009.5mb 36f 46f
3:48 6 7 mph 1009.5mb 36f 46f
3:42 2 8 mph 1009.4mb 36f 49f
3:36  -  6 mph 1009.4mb 36f 48f
3:30 6 10 mph 1009.3mb 36f 52f
3:24 5 11 mph 1009.1mb 36f 53f
3:18 7 13 mph 1009.1mb 36f 52f
3:12 8 14 mph 1008.9mb 36f 52f
3:06 10 16 mph 1008.8mb 36f 53f
3:00 9 15 mph 1008.8mb 36f 52f
2:54 11 17 mph 1008.6mb 36f 53f
2:48 11 17 mph 1008.5mb 36f 52f
2:42 9 15 mph 1008.5mb 36f 51f
2:36 10 14 mph 1008.4mb 36f 51f
2:30 10 14 mph 1008.4mb 36f 51f
2:24 10 15 mph 1008.3mb 36f 51f
2:18 11 18 mph 1008.3mb 36f 52f
2:12 11 17 mph 1008.2mb 36f 51f
2:06 11 18 mph 1008.1mb 36f 50f
2:00 10 15 mph 1008.1mb 36f 50f
1:54 9 17 mph 1008.1mb 36f 50f
1:48 11 17 mph 1008mb 36f -
1:42 11 20 mph 1007.9mb 36f -
1:36 13 18 mph 1007.8mb 36f -
1:30 13 18 mph 1007.8mb 36f 50f
1:24 13 16 mph 1007.7mb 36f 49f
1:18 13 20 mph 1007.7mb 36f 49f
1:12 13 17 mph 1007.6mb 36f 49f
1:06 13 18 mph 1007.6mb 36f 48f
1:00 10 18 mph 1007.6mb 36f 48f